ETD221 OMAA-OPKC
Flight info
| Callsign | ETD221 |
|---|---|
| Flight time | N/A |
| Altitude | 33000 |
| Route | KANIP N318 LAKLU G216 LAKIV |
| Aircraft | A320/M-S/C |
Departure
| Time | N/A |
|---|---|
| Airport | Zayed International Airport (OMAA) |
Arrival
| Time | 2026-05-04 07:52 |
|---|---|
| Airport | Jinnah International Airport (OPKC) |
| Time | Latitude | Longitude | Altitude | Speed | Heading |
|---|---|---|---|---|---|
| 2026-05-04 07:19 | 24.52272 | 64.76646 | 32760 ft | 508 kts | 76° |
| 2026-05-04 07:20 | 24.52770 | 64.80921 | 32748 ft | 507 kts | 76° |
| 2026-05-04 07:20 | 24.53457 | 64.88645 | 32741 ft | 509 kts | 79° |
| 2026-05-04 07:22 | 24.55827 | 65.19692 | 32731 ft | 510 kts | 79° |
| 2026-05-04 07:23 | 24.56424 | 65.27463 | 32729 ft | 510 kts | 79° |
| 2026-05-04 07:23 | 24.57016 | 65.35182 | 32712 ft | 509 kts | 79° |
| 2026-05-04 07:24 | 24.57308 | 65.39027 | 32342 ft | 500 kts | 79° |
| 2026-05-04 07:24 | 24.57600 | 65.42837 | 31448 ft | 500 kts | 79° |
| 2026-05-04 07:24 | 24.57889 | 65.46613 | 30897 ft | 492 kts | 79° |
| 2026-05-04 07:24 | 24.58172 | 65.50333 | 30290 ft | 485 kts | 79° |
| 2026-05-04 07:25 | 24.58451 | 65.53999 | 29673 ft | 479 kts | 79° |
| 2026-05-04 07:26 | 24.60294 | 65.78441 | 25660 ft | 439 kts | 81° |
| 2026-05-04 07:27 | 24.60539 | 65.81765 | 25092 ft | 433 kts | 82° |
| 2026-05-04 07:27 | 24.60776 | 65.85013 | 24529 ft | 428 kts | 82° |
| 2026-05-04 07:27 | 24.61009 | 65.88252 | 23967 ft | 423 kts | 82° |
| 2026-05-04 07:27 | 24.61237 | 65.91453 | 23375 ft | 418 kts | 82° |
| 2026-05-04 07:28 | 24.61460 | 65.94624 | 22776 ft | 415 kts | 82° |
| 2026-05-04 07:28 | 24.61681 | 65.97772 | 22196 ft | 411 kts | 83° |
| 2026-05-04 07:28 | 24.61899 | 66.00890 | 21612 ft | 407 kts | 83° |
| 2026-05-04 07:28 | 24.62115 | 66.03985 | 21032 ft | 404 kts | 83° |
| 2026-05-04 07:29 | 24.62329 | 66.07043 | 20496 ft | 400 kts | 83° |
| 2026-05-04 07:29 | 24.62541 | 66.10079 | 19967 ft | 396 kts | 83° |
| 2026-05-04 07:29 | 24.62751 | 66.13089 | 19426 ft | 393 kts | 83° |
| 2026-05-04 07:29 | 24.62959 | 66.16069 | 18887 ft | 390 kts | 83° |
| 2026-05-04 07:30 | 24.63165 | 66.19027 | 18364 ft | 386 kts | 83° |
| 2026-05-04 07:30 | 24.63368 | 66.21959 | 17849 ft | 382 kts | 83° |
| 2026-05-04 07:30 | 24.63567 | 66.24830 | 17314 ft | 380 kts | 83° |
| 2026-05-04 07:30 | 24.63766 | 66.27710 | 16823 ft | 376 kts | 83° |
| 2026-05-04 07:31 | 24.63963 | 66.30569 | 16283 ft | 374 kts | 83° |
| 2026-05-04 07:31 | 24.64159 | 66.33402 | 15783 ft | 370 kts | 83° |
| 2026-05-04 07:33 | 24.65470 | 66.52581 | 12393 ft | 348 kts | 83° |
| 2026-05-04 07:33 | 24.65647 | 66.55191 | 11933 ft | 344 kts | 84° |
| 2026-05-04 07:33 | 24.65810 | 66.57843 | 11410 ft | 343 kts | 84° |
| 2026-05-04 07:33 | 24.65941 | 66.60046 | 10997 ft | 342 kts | 84° |
| 2026-05-04 07:34 | 24.66102 | 66.62647 | 10537 ft | 339 kts | 83° |
| 2026-05-04 07:34 | 24.66262 | 66.65194 | 10378 ft | 327 kts | 83° |
| 2026-05-04 07:34 | 24.66420 | 66.67633 | 10269 ft | 314 kts | 83° |
| 2026-05-04 07:34 | 24.66573 | 66.69985 | 10073 ft | 305 kts | 82° |
| 2026-05-04 07:35 | 24.66728 | 66.72313 | 9797 ft | 302 kts | 82° |
| 2026-05-04 07:35 | 24.66883 | 66.74634 | 9725 ft | 306 kts | 82° |
| 2026-05-04 07:35 | 24.67040 | 66.76972 | 9706 ft | 307 kts | 82° |
| 2026-05-04 07:35 | 24.67196 | 66.79306 | 9701 ft | 307 kts | 82° |
| 2026-05-04 07:36 | 24.67352 | 66.81646 | 9699 ft | 307 kts | 82° |
| 2026-05-04 07:36 | 24.67508 | 66.83989 | 9699 ft | 307 kts | 82° |
| 2026-05-04 07:38 | 24.68563 | 67.00032 | 9023 ft | 305 kts | 82° |
| 2026-05-04 07:38 | 24.68728 | 67.02345 | 8657 ft | 302 kts | 79° |
| 2026-05-04 07:38 | 24.69173 | 67.04579 | 8292 ft | 296 kts | 68° |
| 2026-05-04 07:38 | 24.69995 | 67.06620 | 7940 ft | 289 kts | 57° |
| 2026-05-04 07:39 | 24.70976 | 67.08539 | 7587 ft | 287 kts | 56° |
| 2026-05-04 07:39 | 24.71968 | 67.10431 | 7243 ft | 284 kts | 55° |
| 2026-05-04 07:39 | 24.72967 | 67.12313 | 6879 ft | 283 kts | 55° |
| 2026-05-04 07:39 | 24.73962 | 67.14176 | 6531 ft | 281 kts | 55° |
| 2026-05-04 07:40 | 24.74942 | 67.16001 | 6195 ft | 279 kts | 55° |
| 2026-05-04 07:40 | 24.75921 | 67.17823 | 5994 ft | 276 kts | 55° |
| 2026-05-04 07:40 | 24.76900 | 67.19640 | 5633 ft | 276 kts | 55° |
| 2026-05-04 07:40 | 24.77884 | 67.21462 | 5293 ft | 276 kts | 55° |
| 2026-05-04 07:41 | 24.78861 | 67.23272 | 4956 ft | 275 kts | 56° |
| 2026-05-04 07:41 | 24.79836 | 67.25080 | 4606 ft | 274 kts | 56° |
| 2026-05-04 07:41 | 24.80809 | 67.26883 | 4253 ft | 273 kts | 56° |
| 2026-05-04 07:41 | 24.81770 | 67.28666 | 4044 ft | 269 kts | 56° |
| 2026-05-04 07:42 | 24.82739 | 67.30462 | 3988 ft | 273 kts | 56° |
| 2026-05-04 07:42 | 24.83706 | 67.32258 | 3977 ft | 272 kts | 56° |
| 2026-05-04 07:42 | 24.84642 | 67.34000 | 3970 ft | 261 kts | 56° |
| 2026-05-04 07:42 | 24.85545 | 67.35680 | 3964 ft | 248 kts | 56° |
| 2026-05-04 07:43 | 24.86410 | 67.37265 | 3943 ft | 235 kts | 52° |
| 2026-05-04 07:43 | 24.87105 | 67.38136 | 3839 ft | 226 kts | 38° |
| 2026-05-04 07:46 | 24.87448 | 67.38432 | 3777 ft | 224 kts | 32° |
| 2026-05-04 07:46 | 24.88855 | 67.39101 | 3461 ft | 220 kts | 9° |
| 2026-05-04 07:46 | 24.90353 | 67.39077 | 3241 ft | 212 kts | 346° |
| 2026-05-04 07:46 | 24.91764 | 67.38731 | 3115 ft | 205 kts | 346° |
| 2026-05-04 07:47 | 24.93152 | 67.38339 | 2759 ft | 206 kts | 337° |
| 2026-05-04 07:47 | 24.94259 | 67.37392 | 2408 ft | 203 kts | 307° |
| 2026-05-04 07:47 | 24.94728 | 67.35967 | 2083 ft | 200 kts | 278° |
| 2026-05-04 07:49 | 24.93071 | 67.26742 | 1800 ft | 150 kts | 259° |
| 2026-05-04 07:49 | 24.92808 | 67.25652 | 1580 ft | 145 kts | 258° |
| 2026-05-04 07:49 | 24.92544 | 67.24565 | 1408 ft | 148 kts | 258° |
| 2026-05-04 07:50 | 24.92282 | 67.23489 | 1219 ft | 146 kts | 258° |
| 2026-05-04 07:50 | 24.92019 | 67.22405 | 1026 ft | 146 kts | 258° |
| 2026-05-04 07:50 | 24.91756 | 67.21323 | 836 ft | 146 kts | 258° |
| 2026-05-04 07:50 | 24.91493 | 67.20244 | 642 ft | 145 kts | 258° |
| 2026-05-04 07:51 | 24.91231 | 67.19167 | 451 ft | 145 kts | 258° |
| 2026-05-04 07:51 | 24.90953 | 67.18094 | 244 ft | 145 kts | 258° |
| 2026-05-04 07:51 | 24.90706 | 67.17033 | 121 ft | 139 kts | 258° |
| 2026-05-04 07:51 | 24.90519 | 67.16236 | 115 ft | 66 kts | 254° |
| 2026-05-04 07:52 | 24.90446 | 67.15929 | 115 ft | 32 kts | 252° |
| 2026-05-04 07:52 | 24.90373 | 67.15762 | 115 ft | 17 kts | 155° |
| 2026-05-04 07:52 | 24.90270 | 67.15798 | 115 ft | 12 kts | 165° |
| 2026-05-04 07:52 | 24.90239 | 67.15807 | 115 ft | 0 kts | 165° |
| 2026-05-04 07:53 | 24.90229 | 67.15810 | 115 ft | 7 kts | 162° |